Terminal Aerodrome Forecast
Issued by NWS

Current Version | Previous Version | Text Only | Print | Product List | Glossary On
Versions: 1 2 3 4 5 6 7 8 9 10 11 12 13 14 15 16 17 18 19 20 21
000
FTUS44 KTSA 072341
TAFRVS
TAF
KRVS 072341Z 0800/0824 01011G18KT P6SM OVC050
      TEMPO 0800/0802 -SN
     FM080700 36008KT P6SM SCT250
     FM081400 35011KT P6SM SKC=

USA.gov is the U.S. government's official web portal to all federal, state and local government web resources and services.